首页
METAR-TAF:

METAR-TAF

机场 :

Salak

马鲁阿, 喀麦隆

纬度: 10-27N, 经度: 014-15E, 海拔: 423米

当前天气观测

该预报发布于6小时和10分钟前的10:00 UTC
温度
气压 1015 hPa
能见度10公里或以上
少量云层高于3000英尺

METAR: FKKL 261000Z /////KT 9999 FEW030 ///// Q1015

时间: 17:10 (16:10 UTC)

预报

该预报发布于11小时和10分钟前的05:00 UTC
预报有效从26日的 06点(UTC)到 26日的 18点(UTC)
风速8节,风向多变
能见度10公里或以上
少量云层高于3000英尺
短暂存在
从 26日的 09点(UTC)到 26日的 13点(UTC)
散云层高于2000英尺
少量云层高于2300英尺, 积雨云.
雷暴,

TAF: FKKL 260500Z 2606/2618 VRB08KT 9999 FEW030 TEMPO 2609/2613 TS SCT020 FEW023CB

超过4000个机场的气象观测和天气预报(METAR&TAF报告)。

可查询的气象台以黄色和红色小点在地图上表示。

将鼠标移到小点上方,可查看气象台名称。

然后点击查看天气观测和预报。

如需切换地图:点击带黑十字的绿色按钮放大地图;点击带横线的绿色按钮缩小地图;或者点击绿色箭头查看邻近地区的地图。


METAR-TAF: